Kennetcook, Canada
Current Conditions -  °F | °C
As of 10:00 PM on Tuesday 21 Oct 2014 (Local Time) from CYHZ Reporting Station
Overcast Overcast  
Wind Chill: 48°   Ceiling: 23000
Heat Index: 48°   Visibility: 15mi
Dew Point: 39°   Wind: 3mph
Humidity: 71%   Direction: 110°ESE
Pressure: 30.23"   Gusts: NA
Location:  45.18°N, 63.72°W
Report Text: CYHZ 220100Z 11003KT 15SM FEW150 OVC230 09/04 A3023 RMK AC2CI6 SLP240
Loading
Personal Weather Stations






























Interactive Weather Map New forecast layout! Learn more

10-Day Weather Forecast

Advertisements
Track Severe Weather on mobile